East Glacier Park, Montana
Current Conditions -  °F | °C
As of 2:56 PM on Thursday 27 Nov 2014 (Local Time) from KCTB Reporting Station
Clear Clear  
Wind Chill: 40°   Ceiling: Unl
Heat Index: 49°   Visibility: 10mi
Dew Point: 36°   Wind: 38mph
Humidity: 61%   Direction: 260°W
Pressure: 29.67"   Gusts: 46mph
Location:  48.44°N, 113.21°W
Report Text: KCTB 272156Z AUTO 26033G40KT 10SM CLR 09/02 A2967 RMK AO2 PK WND 25049/2123 SLP063 T00940022 $
Loading
Personal Weather Stations






























Interactive Weather Map New forecast layout! Learn more

10-Day Weather Forecast

Advertisements
Track Severe Weather on mobile